createdAt,value
2019-04-07T00:00:06.323Z,31.85
2019-04-07T00:02:37.677Z,35.92
2019-04-07T00:05:12.398Z,33.13
2019-04-07T00:07:39.084Z,34.23
2019-04-07T00:10:09.861Z,33.02
2019-04-07T00:12:39.489Z,33.70
2019-04-07T00:15:09.155Z,29.82
2019-04-07T00:17:38.757Z,29.55
2019-04-07T00:20:08.793Z,30.27
2019-04-07T00:22:38.076Z,33.63
2019-04-07T00:25:07.823Z,29.90
2019-04-07T00:27:36.879Z,29.25
2019-04-07T00:32:49.097Z,29.90
2019-04-07T00:35:26.890Z,30.17
2019-04-07T00:37:50.761Z,33.70
2019-04-07T00:40:20.815Z,31.93
2019-04-07T00:42:50.403Z,32.53
2019-04-07T00:45:20.592Z,28.95
2019-04-07T00:47:50.534Z,31.33
2019-04-07T00:50:20.426Z,30.05
2019-04-07T00:52:50.222Z,28.12
2019-04-07T00:55:24.283Z,32.73
2019-04-07T00:58:13.698Z,31.05
2019-04-07T01:00:43.455Z,30.45
2019-04-07T01:03:17.339Z,28.57
2019-04-07T01:05:53.311Z,29.63
2019-04-07T01:08:26.286Z,30.40
2019-04-07T01:10:55.901Z,34.20
2019-04-07T01:13:26.268Z,34.45
2019-04-07T01:15:56.005Z,31.90
2019-04-07T01:18:26.985Z,32.80
2019-04-07T01:23:24.962Z,36.13
2019-04-07T01:25:54.256Z,32.98
2019-04-07T01:28:23.137Z,33.90
2019-04-07T01:30:52.492Z,33.95
2019-04-07T01:33:21.858Z,31.90
2019-04-07T01:35:52.300Z,34.13
2019-04-07T01:38:21.462Z,32.88
2019-04-07T01:40:59.858Z,35.28
2019-04-07T01:43:42.041Z,33.25
2019-04-07T01:46:24.585Z,35.45
2019-04-07T01:49:12.807Z,31.25
2019-04-07T01:51:48.743Z,31.87
2019-04-07T01:54:33.981Z,32.55
2019-04-07T01:57:41.104Z,30.62
2019-04-07T02:00:22.979Z,29.07
2019-04-07T02:03:17.544Z,25.80
2019-04-07T02:06:13.529Z,27.73
2019-04-07T02:09:21.439Z,31.55
2019-04-07T02:12:09.463Z,32.63
2019-04-07T02:14:57.965Z,33.53
2019-04-07T02:17:51.585Z,33.83
2019-04-07T02:21:07.193Z,33.65
2019-04-07T02:27:05.981Z,31.30
2019-04-07T02:30:01.323Z,29.70
2019-04-07T02:32:40.849Z,32.48
2019-04-07T02:35:36.482Z,30.15
2019-04-07T02:38:17.676Z,30.30
2019-04-07T02:40:59.878Z,30.32
2019-04-07T02:43:47.495Z,34.35
2019-04-07T02:46:36.607Z,31.23
2019-04-07T02:49:24.511Z,30.65
2019-04-07T02:52:11.302Z,30.92
2019-04-07T02:55:02.700Z,30.92
2019-04-07T02:57:40.523Z,31.90
2019-04-07T03:00:20.358Z,30.05
2019-04-07T03:03:20.122Z,29.35
2019-04-07T03:06:08.859Z,29.50
2019-04-07T03:08:55.908Z,27.85
2019-04-07T03:11:51.052Z,31.65
2019-04-07T03:14:39.677Z,30.20
2019-04-07T03:17:14.054Z,30.45
2019-04-07T03:20:10.532Z,31.20
2019-04-07T03:22:50.633Z,32.65
2019-04-07T03:25:42.276Z,31.65
2019-04-07T03:28:40.678Z,33.70
2019-04-07T03:31:22.499Z,31.73
2019-04-07T03:34:14.453Z,32.78
2019-04-07T03:37:20.293Z,30.72
2019-04-07T03:42:24.844Z,31.60
2019-04-07T03:45:02.621Z,32.10
2019-04-07T03:47:52.909Z,32.13
2019-04-07T03:50:34.856Z,32.50
2019-04-07T03:53:35.672Z,33.35
2019-04-07T03:56:43.663Z,32.45
2019-04-07T04:05:52.539Z,32.65
2019-04-07T04:08:41.772Z,30.35
2019-04-07T04:11:49.672Z,32.35
2019-04-07T04:14:23.911Z,32.63
2019-04-07T04:16:54.247Z,32.78
2019-04-07T04:19:23.613Z,32.83
2019-04-07T04:21:52.730Z,28.55
2019-04-07T04:27:07.300Z,32.75
2019-04-07T04:29:38.161Z,34.95
2019-04-07T04:32:07.718Z,37.60
2019-04-07T04:34:36.825Z,33.13
2019-04-07T04:37:11.168Z,33.33
2019-04-07T04:39:41.131Z,36.65
2019-04-07T04:42:10.442Z,34.78
2019-04-07T04:44:40.422Z,33.85
2019-04-07T04:47:10.197Z,31.27
2019-04-07T04:49:40.284Z,30.52
2019-04-07T04:52:09.482Z,28.30
2019-04-07T04:54:38.851Z,28.92
2019-04-07T04:57:09.274Z,30.95
2019-04-07T04:59:38.752Z,31.62
2019-04-07T05:04:35.950Z,29.45
2019-04-07T05:07:05.672Z,29.48
2019-04-07T05:09:44.006Z,31.30
2019-04-07T05:12:08.374Z,33.58
2019-04-07T05:14:37.750Z,30.92
2019-04-07T05:17:15.284Z,31.93
2019-04-07T05:19:44.604Z,29.82
2019-04-07T05:22:15.255Z,27.42
2019-04-07T05:24:44.489Z,30.62
2019-04-07T05:29:42.522Z,26.10
2019-04-07T05:32:12.210Z,24.90
2019-04-07T05:34:42.298Z,24.15
2019-04-07T05:37:12.096Z,19.90
2019-04-07T05:39:44.289Z,22.00
2019-04-07T05:42:13.781Z,21.25
2019-04-07T05:44:43.300Z,22.93
2019-04-07T05:47:14.426Z,21.25
2019-04-07T05:52:12.799Z,21.90
2019-04-07T05:54:42.865Z,20.97
2019-04-07T05:57:13.428Z,21.27
2019-04-07T05:59:43.643Z,22.55
2019-04-07T06:04:43.556Z,24.85
2019-04-07T06:07:13.977Z,23.75
2019-04-07T06:09:43.914Z,23.10
2019-04-07T06:12:13.516Z,24.50
2019-04-07T06:14:46.488Z,24.80
2019-04-07T06:17:15.516Z,25.92
2019-04-07T06:22:17.463Z,24.77
2019-04-07T06:24:46.051Z,26.55
2019-04-07T06:27:16.899Z,25.45
2019-04-07T06:29:46.725Z,26.37
2019-04-07T06:34:45.896Z,24.87
2019-04-07T06:37:16.430Z,25.17
2019-04-07T06:39:49.378Z,25.92
2019-04-07T06:42:17.613Z,26.48
2019-04-07T06:44:50.321Z,26.07
2019-04-07T06:50:27.947Z,25.82
2019-04-07T06:53:04.494Z,23.20
2019-04-07T06:56:04.104Z,21.45
2019-04-07T06:58:53.408Z,23.62
2019-04-07T07:01:44.925Z,19.37
2019-04-07T07:04:33.863Z,21.23
2019-04-07T07:07:13.111Z,19.00
2019-04-07T07:10:03.201Z,20.52
2019-04-07T07:13:11.594Z,18.32
2019-04-07T07:15:48.264Z,19.85
2019-04-07T07:18:47.102Z,24.18
2019-04-07T07:21:24.528Z,22.58
2019-04-07T07:26:22.105Z,22.45
2019-04-07T07:28:52.121Z,20.43
2019-04-07T07:31:24.720Z,22.35
2019-04-07T07:33:53.969Z,20.70
2019-04-07T07:36:24.139Z,21.55
2019-04-07T07:39:02.216Z,22.58
2019-04-07T07:41:33.093Z,22.15
2019-04-07T07:46:35.541Z,22.55
2019-04-07T07:51:33.538Z,22.05
2019-04-07T07:54:03.570Z,21.52
2019-04-07T07:59:02.561Z,20.40
2019-04-07T08:04:00.801Z,20.80
2019-04-07T08:06:31.706Z,21.73
2019-04-07T08:14:04.222Z,22.58
2019-04-07T08:16:34.624Z,22.17
2019-04-07T08:19:03.995Z,20.15
2019-04-07T08:21:33.740Z,20.85
2019-04-07T08:24:03.588Z,22.22
2019-04-07T08:29:05.740Z,24.12
2019-04-07T08:34:03.912Z,23.27
2019-04-07T08:36:33.856Z,26.85
2019-04-07T08:39:07.265Z,22.82
2019-04-07T08:41:39.726Z,24.72
2019-04-07T08:44:08.256Z,23.00
2019-04-07T08:46:41.633Z,25.10
2019-04-07T08:49:08.700Z,26.25
2019-04-07T08:51:38.045Z,26.48
2019-04-07T08:54:07.453Z,28.60
2019-04-07T08:56:36.691Z,28.98
2019-04-07T09:01:38.062Z,25.75
2019-04-07T09:04:07.688Z,29.70
2019-04-07T09:06:37.427Z,28.00
2019-04-07T09:11:40.339Z,27.52
2019-04-07T09:14:09.433Z,27.25
2019-04-07T09:16:59.313Z,21.75
2019-04-07T09:19:47.299Z,25.97
2019-04-07T09:22:37.827Z,28.85
2019-04-07T09:25:27.269Z,23.77
2019-04-07T09:28:11.939Z,23.92
2019-04-07T09:31:08.427Z,24.37
2019-04-07T09:34:11.548Z,23.05
2019-04-07T09:37:06.958Z,20.70
2019-04-07T09:40:04.425Z,22.15
2019-04-07T09:42:41.191Z,21.85
2019-04-07T09:45:38.585Z,22.02
2019-04-07T09:48:34.438Z,21.12
2019-04-07T09:51:39.758Z,20.12
2019-04-07T09:54:25.586Z,19.05
2019-04-07T09:57:13.965Z,19.15
2019-04-07T09:59:59.354Z,19.00
2019-04-07T10:02:47.054Z,16.67
2019-04-07T10:05:48.613Z,18.60
2019-04-07T10:08:40.587Z,18.67
2019-04-07T10:14:30.729Z,18.27
2019-04-07T10:17:22.252Z,17.05
2019-04-07T10:20:09.607Z,16.85
2019-04-07T10:22:57.548Z,15.85
2019-04-07T10:28:45.403Z,16.32
2019-04-07T10:31:24.594Z,15.80
2019-04-07T10:34:03.308Z,15.32
2019-04-07T10:36:56.753Z,13.98
2019-04-07T10:39:50.056Z,12.73
2019-04-07T10:42:26.075Z,13.40
2019-04-07T10:45:19.604Z,15.13
2019-04-07T10:48:13.918Z,13.60
2019-04-07T10:51:01.674Z,13.58
2019-04-07T10:56:31.963Z,12.40
2019-04-07T10:59:32.799Z,10.82
2019-04-07T11:02:20.435Z,11.40
2019-04-07T11:05:12.011Z,10.88
2019-04-07T11:08:02.526Z,10.98
2019-04-07T11:10:50.978Z,9.65
2019-04-07T11:13:38.765Z,11.75
2019-04-07T11:16:17.438Z,10.28
2019-04-07T11:30:04.896Z,5.83
2019-04-07T11:32:50.131Z,6.80
2019-04-07T11:35:45.571Z,6.70
2019-04-07T11:38:31.048Z,8.90
2019-04-07T11:41:22.697Z,7.08
2019-04-07T11:44:23.511Z,7.03
2019-04-07T11:47:12.359Z,7.58
2019-04-07T11:49:52.951Z,7.22
2019-04-07T11:52:40.843Z,5.25
2019-04-07T11:55:25.760Z,8.48
2019-04-07T11:58:12.266Z,6.95
2019-04-07T12:01:00.631Z,7.35
2019-04-07T12:06:52.606Z,6.75
2019-04-07T12:12:28.731Z,5.90
2019-04-07T12:15:14.213Z,6.47
2019-04-07T12:18:03.421Z,7.40
2019-04-07T12:23:32.733Z,7.00
2019-04-07T12:26:12.775Z,7.00
2019-04-07T12:29:04.539Z,9.55
2019-04-07T12:31:59.656Z,7.05
2019-04-07T12:34:49.748Z,6.42
2019-04-07T12:37:41.309Z,7.00
2019-04-07T12:48:43.462Z,6.50
2019-04-07T12:51:44.827Z,6.10
2019-04-07T12:54:29.569Z,7.60
2019-04-07T12:57:23.010Z,7.80
2019-04-07T13:00:22.659Z,5.78
2019-04-07T13:06:06.241Z,5.90
2019-04-07T13:11:50.081Z,9.85
2019-04-07T13:14:40.088Z,7.62
2019-04-07T13:17:19.475Z,7.17
2019-04-07T13:20:02.072Z,6.85
2019-04-07T13:22:58.906Z,6.67
2019-04-07T13:25:38.622Z,8.08
2019-04-07T13:28:15.242Z,8.25
2019-04-07T13:31:04.952Z,7.28
2019-04-07T13:33:48.519Z,7.50
2019-04-07T13:39:29.340Z,7.50
2019-04-07T13:42:20.823Z,7.83
2019-04-07T13:45:16.884Z,9.55
2019-04-07T13:47:56.769Z,8.80
2019-04-07T13:50:35.518Z,8.80
2019-04-07T13:59:39.993Z,7.03
2019-04-07T14:02:30.321Z,8.70
2019-04-07T14:05:11.065Z,8.73
2019-04-07T14:07:58.958Z,10.65
2019-04-07T14:10:48.213Z,8.10
2019-04-07T14:13:56.548Z,9.00
2019-04-07T14:17:05.048Z,8.20
2019-04-07T14:19:55.474Z,9.98
2019-04-07T14:22:53.976Z,8.30
2019-04-07T14:25:51.060Z,8.65
2019-04-07T14:28:30.754Z,10.53
2019-04-07T14:31:29.219Z,8.93
2019-04-07T14:34:23.893Z,8.80
2019-04-07T14:37:13.527Z,11.18
2019-04-07T14:39:47.765Z,13.15
2019-04-07T14:42:42.883Z,9.53
2019-04-07T14:45:27.083Z,7.25
2019-04-07T14:48:02.152Z,9.05
2019-04-07T14:50:53.813Z,11.68
2019-04-07T14:53:30.619Z,15.10
2019-04-07T14:59:00.649Z,8.40
2019-04-07T15:01:39.563Z,8.98
2019-04-07T15:06:37.823Z,7.97
2019-04-07T15:09:13.589Z,9.93
2019-04-07T15:11:49.623Z,7.92
2019-04-07T15:14:19.213Z,9.93
2019-04-07T15:16:49.104Z,6.97
2019-04-07T15:19:18.130Z,8.75
2019-04-07T15:21:48.832Z,6.28
2019-04-07T15:24:18.712Z,6.75
2019-04-07T15:26:50.088Z,7.55
2019-04-07T15:29:19.754Z,5.83
2019-04-07T15:31:51.035Z,5.92
2019-04-07T15:36:50.096Z,4.65
2019-04-07T15:39:20.446Z,5.60
2019-04-07T15:41:49.592Z,7.17
2019-04-07T15:44:19.603Z,5.12
2019-04-07T15:49:20.420Z,4.17
2019-04-07T15:51:50.295Z,4.60
2019-04-07T15:54:21.504Z,4.33
2019-04-07T15:56:51.596Z,4.05
2019-04-07T15:59:21.295Z,5.28
2019-04-07T16:01:50.623Z,4.28
2019-04-07T16:04:26.225Z,5.85
2019-04-07T16:06:53.122Z,4.37
2019-04-07T16:09:33.361Z,5.83
2019-04-07T16:11:53.294Z,4.58
2019-04-07T16:14:23.071Z,4.15
2019-04-07T16:16:53.614Z,4.25
2019-04-07T16:19:35.752Z,4.55
2019-04-07T16:21:54.918Z,5.12
2019-04-07T16:24:25.683Z,4.20
2019-04-07T16:29:24.123Z,3.72
2019-04-07T16:31:55.876Z,3.80
2019-04-07T16:34:24.517Z,3.42
2019-04-07T16:36:57.336Z,3.75
2019-04-07T16:39:24.584Z,3.60
2019-04-07T16:41:54.511Z,4.40
2019-04-07T16:44:24.597Z,4.15
2019-04-07T16:46:57.267Z,4.05
2019-04-07T16:49:25.752Z,3.75
2019-04-07T16:54:28.066Z,4.80
2019-04-07T16:56:58.354Z,5.70
2019-04-07T17:01:57.010Z,4.95
2019-04-07T17:04:27.137Z,4.92
2019-04-07T17:07:02.361Z,4.20
2019-04-07T17:09:29.118Z,4.08
2019-04-07T17:11:58.964Z,4.20
2019-04-07T17:14:31.958Z,4.87
2019-04-07T17:17:00.167Z,4.97
2019-04-07T17:19:30.103Z,4.75
2019-04-07T17:22:01.925Z,4.90
2019-04-07T17:24:32.310Z,5.45
2019-04-07T17:27:03.113Z,5.50
2019-04-07T17:29:34.834Z,6.12
2019-04-07T17:32:06.032Z,5.67
2019-04-07T17:34:36.796Z,5.45
2019-04-07T17:37:07.249Z,7.20
2019-04-07T17:39:55.955Z,5.72
2019-04-07T17:42:27.269Z,8.18
2019-04-07T17:45:15.120Z,7.28
2019-04-07T17:48:07.079Z,8.05
2019-04-07T17:51:01.084Z,8.23
2019-04-07T17:53:53.899Z,6.42
2019-04-07T17:56:41.807Z,6.53
2019-04-07T17:59:31.082Z,7.17
2019-04-07T18:02:19.816Z,5.80
2019-04-07T18:05:26.155Z,12.23
2019-04-07T18:08:12.125Z,8.25
2019-04-07T18:11:08.742Z,8.53
2019-04-07T18:16:46.209Z,8.00
2019-04-07T18:19:33.746Z,7.12
2019-04-07T18:25:05.165Z,8.38
2019-04-07T18:27:59.938Z,9.25
2019-04-07T18:31:03.053Z,8.75
2019-04-07T18:33:53.644Z,9.88
2019-04-07T18:36:42.642Z,11.68
2019-04-07T18:39:31.793Z,11.28
2019-04-07T18:42:31.041Z,13.70
2019-04-07T18:45:25.196Z,9.88
2019-04-07T18:48:13.681Z,12.82
2019-04-07T18:53:57.721Z,14.18
2019-04-07T18:56:44.098Z,12.80
2019-04-07T18:59:25.888Z,10.80
2019-04-07T19:02:16.437Z,11.33
2019-04-07T19:05:08.319Z,12.00
2019-04-07T19:07:58.353Z,13.03
2019-04-07T19:11:06.936Z,13.80
2019-04-07T19:13:49.010Z,15.75
2019-04-07T19:16:34.813Z,15.53
2019-04-07T19:19:33.377Z,15.83
2019-04-07T19:25:19.250Z,17.40
2019-04-07T19:28:03.339Z,16.42
2019-04-07T19:30:45.361Z,16.95
2019-04-07T19:33:24.546Z,16.75
2019-04-07T19:36:20.427Z,20.80
2019-04-07T19:39:25.055Z,22.00
2019-04-07T19:42:08.786Z,18.98
2019-04-07T19:44:59.523Z,21.27
2019-04-07T19:47:48.972Z,21.15
2019-04-07T19:50:37.039Z,20.12
2019-04-07T19:53:45.584Z,21.15
2019-04-07T19:56:40.614Z,18.67
2019-04-07T20:02:20.323Z,21.50
2019-04-07T20:05:12.300Z,21.17
2019-04-07T20:08:05.667Z,21.37
2019-04-07T20:10:49.891Z,19.25
2019-04-07T20:13:38.384Z,21.90
2019-04-07T20:16:26.166Z,23.40
2019-04-07T20:19:31.376Z,21.50
2019-04-07T20:25:00.844Z,26.27
2019-04-07T20:27:57.353Z,26.82
2019-04-07T20:30:46.969Z,26.05
2019-04-07T20:33:39.499Z,20.02
2019-04-07T20:36:27.765Z,18.95
2019-04-07T20:39:06.065Z,20.62
2019-04-07T20:45:24.088Z,18.98
2019-04-07T20:48:13.582Z,20.43
2019-04-07T20:50:56.876Z,19.95
2019-04-07T20:53:40.867Z,18.45
2019-04-07T20:56:23.312Z,22.17
2019-04-07T20:59:11.758Z,18.95
2019-04-07T21:02:04.520Z,19.60
2019-04-07T21:04:53.443Z,20.20
2019-04-07T21:07:40.918Z,20.05
2019-04-07T21:10:27.509Z,18.15
2019-04-07T21:13:04.864Z,19.12
2019-04-07T21:15:52.841Z,20.52
2019-04-07T21:18:42.294Z,19.10
2019-04-07T21:21:32.262Z,17.67
2019-04-07T21:24:40.143Z,21.52
2019-04-07T21:27:28.423Z,22.30
2019-04-07T21:33:12.015Z,21.62
2019-04-07T21:36:00.023Z,21.95
2019-04-07T21:38:36.144Z,19.23
2019-04-07T21:41:24.341Z,18.37
2019-04-07T21:44:13.495Z,15.35
2019-04-07T21:47:00.872Z,16.37
2019-04-07T21:49:50.315Z,14.55
2019-04-07T21:52:35.980Z,11.73
2019-04-07T21:55:25.343Z,11.35
2019-04-07T21:58:29.678Z,13.18
2019-04-07T22:01:25.059Z,11.60
2019-04-07T22:04:03.582Z,10.38
2019-04-07T22:06:53.657Z,11.65
2019-04-07T22:09:30.148Z,13.20
2019-04-07T22:12:00.175Z,11.00
2019-04-07T22:14:30.389Z,10.00
2019-04-07T22:17:02.214Z,9.50
2019-04-07T22:19:30.795Z,10.72
2019-04-07T22:24:33.952Z,12.18
2019-04-07T22:27:04.270Z,9.38
2019-04-07T22:32:03.341Z,9.20
2019-04-07T22:34:33.790Z,9.00
2019-04-07T22:37:02.943Z,8.95
2019-04-07T22:39:32.168Z,8.68
2019-04-07T22:42:02.150Z,7.83
2019-04-07T22:44:31.502Z,8.98
2019-04-07T22:47:00.558Z,7.80
2019-04-07T22:49:31.928Z,8.35
2019-04-07T22:52:01.250Z,6.95
2019-04-07T22:54:31.261Z,6.65
2019-04-07T22:57:00.733Z,8.05
2019-04-07T22:59:30.191Z,6.42
2019-04-07T23:01:59.941Z,6.15
2019-04-07T23:04:30.115Z,6.90
2019-04-07T23:06:59.313Z,5.42
2019-04-07T23:09:29.924Z,5.40
2019-04-07T23:12:01.742Z,5.00
2019-04-07T23:14:30.312Z,4.50
2019-04-07T23:16:59.003Z,5.47
2019-04-07T23:19:29.019Z,4.55
2019-04-07T23:21:58.479Z,4.75
2019-04-07T23:24:28.876Z,4.87
2019-04-07T23:26:58.807Z,4.80
2019-04-07T23:29:28.325Z,4.25
2019-04-07T23:31:57.737Z,5.00
2019-04-07T23:36:55.631Z,4.50
2019-04-07T23:39:25.123Z,4.53
2019-04-07T23:41:54.540Z,3.95
2019-04-07T23:44:23.599Z,4.03
2019-04-07T23:49:22.572Z,4.20
2019-04-07T23:51:51.612Z,4.70
2019-04-07T23:54:20.798Z,6.72
2019-04-07T23:56:49.966Z,4.55
2019-04-07T23:59:19.512Z,3.58
